BAW675 EGPD-EGLL
Flight info
| Callsign | BAW675 |
|---|---|
| Flight time | 1h 3m |
| Altitude | FL380 |
| Route | EPCAN NEXUS RIBEL NUGRA |
| Aircraft | A319/M-SDE3FGHIRWY/LB1 |
Departure
| Time | 2026-05-06 18:31 |
|---|---|
| Airport | Aberdeen International Airport (EGPD) |
Arrival
| Time | 2026-05-06 19:34 |
|---|---|
| Airport | London Heathrow Airport (EGLL) |
| Time | Latitude | Longitude | Altitude | Speed | Heading |
|---|---|---|---|---|---|
| 2026-05-06 18:27 | 57.21006 | -2.20607 | 222 ft | 0 kts | 66° |
| 2026-05-06 18:29 | 57.21009 | -2.20595 | 221 ft | 3 kts | 66° |
| 2026-05-06 18:29 | 57.21024 | -2.20529 | 220 ft | 9 kts | 67° |
| 2026-05-06 18:29 | 57.21019 | -2.20399 | 217 ft | 13 kts | 137° |
| 2026-05-06 18:29 | 57.20990 | -2.20369 | 217 ft | 0 kts | 158° |
| 2026-05-06 18:30 | 57.20810 | -2.20237 | 215 ft | 67 kts | 158° |
| 2026-05-06 18:30 | 57.20158 | -2.19757 | 215 ft | 133 kts | 159° |
| 2026-05-06 18:30 | 57.19278 | -2.19100 | 808 ft | 137 kts | 159° |
| 2026-05-06 18:31 | 57.18425 | -2.18476 | 1564 ft | 135 kts | 161° |
| 2026-05-06 18:31 | 57.17555 | -2.17911 | 2251 ft | 138 kts | 164° |
| 2026-05-06 18:31 | 57.16594 | -2.17486 | 2775 ft | 153 kts | 172° |
| 2026-05-06 18:31 | 57.15480 | -2.17292 | 3270 ft | 174 kts | 176° |
| 2026-05-06 18:32 | 57.14223 | -2.17102 | 3914 ft | 190 kts | 175° |
| 2026-05-06 18:32 | 57.12866 | -2.16841 | 4573 ft | 208 kts | 174° |
| 2026-05-06 18:32 | 57.11387 | -2.16510 | 5234 ft | 226 kts | 174° |
| 2026-05-06 18:32 | 57.09778 | -2.16121 | 5901 ft | 245 kts | 173° |
| 2026-05-06 18:33 | 57.08044 | -2.15684 | 6572 ft | 264 kts | 173° |
| 2026-05-06 18:33 | 57.06207 | -2.15210 | 7407 ft | 275 kts | 173° |
| 2026-05-06 18:33 | 57.04333 | -2.14718 | 8424 ft | 278 kts | 174° |
| 2026-05-06 18:33 | 57.02426 | -2.14215 | 9426 ft | 280 kts | 174° |
| 2026-05-06 18:34 | 57.00512 | -2.13714 | 10342 ft | 284 kts | 174° |
| 2026-05-06 18:34 | 56.98536 | -2.13201 | 10984 ft | 297 kts | 174° |
| 2026-05-06 18:34 | 56.96472 | -2.12666 | 11686 ft | 306 kts | 174° |
| 2026-05-06 18:34 | 56.94377 | -2.12119 | 12507 ft | 309 kts | 174° |
| 2026-05-06 18:35 | 56.92259 | -2.11515 | 13306 ft | 314 kts | 172° |
| 2026-05-06 18:35 | 56.90124 | -2.10708 | 14087 ft | 318 kts | 171° |
| 2026-05-06 18:35 | 56.87956 | -2.09870 | 14851 ft | 322 kts | 171° |
| 2026-05-06 18:35 | 56.85768 | -2.09024 | 15573 ft | 326 kts | 171° |
| 2026-05-06 18:36 | 56.83558 | -2.08171 | 16276 ft | 330 kts | 171° |
| 2026-05-06 18:36 | 56.81319 | -2.07308 | 16963 ft | 334 kts | 171° |
| 2026-05-06 18:36 | 56.79046 | -2.06433 | 17633 ft | 338 kts | 171° |
| 2026-05-06 18:36 | 56.76748 | -2.05549 | 18279 ft | 343 kts | 171° |
| 2026-05-06 18:37 | 56.74419 | -2.04653 | 18917 ft | 347 kts | 171° |
| 2026-05-06 18:37 | 56.72043 | -2.03737 | 19560 ft | 351 kts | 172° |
| 2026-05-06 18:37 | 56.69658 | -2.02820 | 20178 ft | 356 kts | 172° |
| 2026-05-06 18:37 | 56.67243 | -2.01893 | 20779 ft | 360 kts | 172° |
| 2026-05-06 18:38 | 56.64794 | -2.00957 | 21361 ft | 364 kts | 172° |
| 2026-05-06 18:38 | 56.62319 | -2.00012 | 21916 ft | 369 kts | 172° |
| 2026-05-06 18:38 | 56.59808 | -1.99055 | 22470 ft | 373 kts | 172° |
| 2026-05-06 18:38 | 56.57277 | -1.98091 | 23034 ft | 377 kts | 172° |
| 2026-05-06 18:39 | 56.54700 | -1.97109 | 23575 ft | 380 kts | 173° |
| 2026-05-06 18:39 | 56.52116 | -1.96128 | 24094 ft | 384 kts | 173° |
| 2026-05-06 18:39 | 56.49505 | -1.95139 | 24613 ft | 388 kts | 172° |
| 2026-05-06 18:40 | 56.44202 | -1.93135 | 25596 ft | 396 kts | 172° |
| 2026-05-06 18:40 | 56.41513 | -1.92118 | 26093 ft | 400 kts | 172° |
| 2026-05-06 18:40 | 56.38795 | -1.91091 | 26569 ft | 404 kts | 172° |
| 2026-05-06 18:40 | 56.36037 | -1.90052 | 27039 ft | 407 kts | 172° |
| 2026-05-06 18:41 | 56.33274 | -1.89010 | 27516 ft | 410 kts | 172° |
| 2026-05-06 18:41 | 56.30485 | -1.87960 | 27967 ft | 414 kts | 172° |
| 2026-05-06 18:41 | 56.27676 | -1.86908 | 28409 ft | 417 kts | 172° |
| 2026-05-06 18:41 | 56.24839 | -1.85887 | 28842 ft | 419 kts | 174° |
| 2026-05-06 18:42 | 56.21964 | -1.85260 | 29259 ft | 420 kts | 180° |
| 2026-05-06 18:42 | 56.19068 | -1.85129 | 29671 ft | 420 kts | 185° |
| 2026-05-06 18:42 | 56.16154 | -1.85503 | 30073 ft | 420 kts | 191° |
| 2026-05-06 18:42 | 56.13264 | -1.86114 | 30465 ft | 423 kts | 191° |
| 2026-05-06 18:43 | 56.10355 | -1.86756 | 30844 ft | 426 kts | 191° |
| 2026-05-06 18:43 | 56.07424 | -1.87401 | 31195 ft | 429 kts | 191° |
| 2026-05-06 18:43 | 56.04462 | -1.88047 | 31535 ft | 433 kts | 191° |
| 2026-05-06 18:43 | 56.01484 | -1.88690 | 31876 ft | 436 kts | 191° |
| 2026-05-06 18:44 | 55.98483 | -1.89331 | 32206 ft | 439 kts | 191° |
| 2026-05-06 18:44 | 55.95434 | -1.89977 | 32542 ft | 442 kts | 191° |
| 2026-05-06 18:44 | 55.92390 | -1.90621 | 32870 ft | 445 kts | 190° |
| 2026-05-06 18:44 | 55.89331 | -1.91267 | 33255 ft | 446 kts | 191° |
| 2026-05-06 18:45 | 55.86261 | -1.91910 | 33684 ft | 446 kts | 191° |
| 2026-05-06 18:45 | 55.83203 | -1.92550 | 34087 ft | 446 kts | 190° |
| 2026-05-06 18:45 | 55.80144 | -1.93195 | 34470 ft | 446 kts | 191° |
| 2026-05-06 18:45 | 55.77085 | -1.93835 | 34863 ft | 446 kts | 191° |
| 2026-05-06 18:46 | 55.74000 | -1.94479 | 35193 ft | 446 kts | 190° |
| 2026-05-06 18:46 | 55.70946 | -1.95117 | 35433 ft | 445 kts | 190° |
| 2026-05-06 18:46 | 55.67894 | -1.95752 | 35665 ft | 444 kts | 190° |
| 2026-05-06 18:46 | 55.64856 | -1.96384 | 35889 ft | 442 kts | 190° |
| 2026-05-06 18:47 | 55.61826 | -1.97014 | 36109 ft | 441 kts | 190° |
| 2026-05-06 18:47 | 55.58808 | -1.97641 | 36317 ft | 439 kts | 190° |
| 2026-05-06 18:47 | 55.55794 | -1.98265 | 36560 ft | 439 kts | 190° |
| 2026-05-06 18:47 | 55.52753 | -1.98893 | 36803 ft | 440 kts | 190° |
| 2026-05-06 18:48 | 55.49733 | -1.99518 | 37041 ft | 441 kts | 190° |
| 2026-05-06 18:48 | 55.46703 | -2.00142 | 37271 ft | 441 kts | 190° |
| 2026-05-06 18:48 | 55.43675 | -2.00766 | 37509 ft | 442 kts | 190° |
| 2026-05-06 18:48 | 55.40646 | -2.01390 | 37743 ft | 442 kts | 190° |
| 2026-05-06 18:49 | 55.37608 | -2.02012 | 37950 ft | 443 kts | 190° |
| 2026-05-06 18:49 | 55.31502 | -2.03263 | 38010 ft | 443 kts | 190° |
| 2026-05-06 18:50 | 55.25421 | -2.04505 | 38007 ft | 443 kts | 190° |
| 2026-05-06 18:50 | 55.19333 | -2.05745 | 38016 ft | 443 kts | 190° |
| 2026-05-06 18:51 | 55.13247 | -2.06979 | 38018 ft | 443 kts | 190° |
| 2026-05-06 18:51 | 55.07145 | -2.08214 | 38025 ft | 443 kts | 189° |
| 2026-05-06 18:52 | 55.01057 | -2.09442 | 38027 ft | 443 kts | 189° |
| 2026-05-06 18:52 | 54.94963 | -2.10666 | 38023 ft | 444 kts | 190° |
| 2026-05-06 18:53 | 54.88853 | -2.11891 | 38015 ft | 444 kts | 189° |
| 2026-05-06 18:53 | 54.82753 | -2.13109 | 38009 ft | 443 kts | 189° |
| 2026-05-06 18:54 | 54.76655 | -2.14324 | 38001 ft | 443 kts | 189° |
| 2026-05-06 18:54 | 54.70571 | -2.15534 | 37996 ft | 443 kts | 189° |
| 2026-05-06 18:55 | 54.64456 | -2.16745 | 37997 ft | 444 kts | 189° |
| 2026-05-06 18:55 | 54.58358 | -2.17949 | 37994 ft | 444 kts | 189° |
| 2026-05-06 18:56 | 54.52263 | -2.19147 | 37994 ft | 444 kts | 189° |
| 2026-05-06 18:56 | 54.46142 | -2.20347 | 37999 ft | 444 kts | 189° |
| 2026-05-06 18:57 | 54.40046 | -2.21539 | 37993 ft | 443 kts | 189° |
| 2026-05-06 18:57 | 54.33960 | -2.22726 | 37986 ft | 443 kts | 189° |
| 2026-05-06 18:58 | 54.27876 | -2.23910 | 37981 ft | 443 kts | 189° |
| 2026-05-06 18:58 | 54.21763 | -2.25093 | 37981 ft | 443 kts | 189° |
| 2026-05-06 18:59 | 54.15663 | -2.26269 | 37992 ft | 444 kts | 189° |
| 2026-05-06 18:59 | 54.09566 | -2.27443 | 37997 ft | 444 kts | 189° |
| 2026-05-06 19:00 | 54.03438 | -2.28607 | 38008 ft | 444 kts | 188° |
| 2026-05-06 19:00 | 53.97300 | -2.29045 | 38006 ft | 445 kts | 182° |
| 2026-05-06 19:01 | 53.91151 | -2.29129 | 38010 ft | 444 kts | 182° |
| 2026-05-06 19:01 | 53.85001 | -2.29224 | 38004 ft | 444 kts | 182° |
| 2026-05-06 19:02 | 53.78823 | -2.29314 | 38002 ft | 445 kts | 182° |
| 2026-05-06 19:02 | 53.72673 | -2.29402 | 38005 ft | 444 kts | 182° |
| 2026-05-06 19:03 | 53.66531 | -2.29491 | 38005 ft | 444 kts | 182° |
| 2026-05-06 19:03 | 53.60363 | -2.29579 | 38010 ft | 444 kts | 182° |
| 2026-05-06 19:04 | 53.54215 | -2.29667 | 38012 ft | 444 kts | 182° |
| 2026-05-06 19:04 | 53.48075 | -2.29753 | 38018 ft | 444 kts | 182° |
| 2026-05-06 19:05 | 53.41937 | -2.29840 | 38013 ft | 443 kts | 182° |
| 2026-05-06 19:05 | 53.35793 | -2.29926 | 38021 ft | 443 kts | 182° |
| 2026-05-06 19:06 | 53.29659 | -2.30012 | 38019 ft | 444 kts | 182° |
| 2026-05-06 19:06 | 53.23525 | -2.30096 | 38024 ft | 444 kts | 182° |
| 2026-05-06 19:07 | 53.17376 | -2.30181 | 38071 ft | 443 kts | 182° |
| 2026-05-06 19:07 | 53.11239 | -2.30263 | 37461 ft | 449 kts | 181° |
| 2026-05-06 19:07 | 53.08128 | -2.29988 | 36487 ft | 454 kts | 175° |
| 2026-05-06 19:08 | 53.05029 | -2.29163 | 36316 ft | 456 kts | 168° |
| 2026-05-06 19:08 | 53.01982 | -2.27783 | 35735 ft | 459 kts | 162° |
| 2026-05-06 19:08 | 52.99037 | -2.25858 | 35190 ft | 459 kts | 155° |
| 2026-05-06 19:08 | 52.96207 | -2.23393 | 34552 ft | 460 kts | 149° |
| 2026-05-06 19:09 | 52.93511 | -2.20612 | 33858 ft | 461 kts | 147° |
| 2026-05-06 19:09 | 52.90829 | -2.17775 | 33146 ft | 461 kts | 147° |
| 2026-05-06 19:09 | 52.88145 | -2.14934 | 32462 ft | 461 kts | 147° |
| 2026-05-06 19:09 | 52.85468 | -2.12112 | 31952 ft | 456 kts | 147° |
| 2026-05-06 19:10 | 52.82820 | -2.09334 | 31466 ft | 451 kts | 148° |
| 2026-05-06 19:10 | 52.80196 | -2.06592 | 30960 ft | 447 kts | 148° |
| 2026-05-06 19:10 | 52.77567 | -2.03855 | 30294 ft | 446 kts | 148° |
| 2026-05-06 19:10 | 52.74975 | -2.01161 | 29770 ft | 441 kts | 148° |
| 2026-05-06 19:11 | 52.72413 | -1.98505 | 29289 ft | 435 kts | 148° |
| 2026-05-06 19:11 | 52.69880 | -1.95882 | 28814 ft | 430 kts | 148° |
| 2026-05-06 19:11 | 52.67376 | -1.93294 | 28342 ft | 425 kts | 148° |
| 2026-05-06 19:11 | 52.64906 | -1.90744 | 27883 ft | 419 kts | 148° |
| 2026-05-06 19:12 | 52.62462 | -1.88223 | 27432 ft | 414 kts | 148° |
| 2026-05-06 19:12 | 52.60035 | -1.85724 | 26992 ft | 409 kts | 148° |
| 2026-05-06 19:12 | 52.57647 | -1.83270 | 26554 ft | 404 kts | 149° |
| 2026-05-06 19:12 | 52.55293 | -1.80853 | 26119 ft | 400 kts | 149° |
| 2026-05-06 19:13 | 52.52956 | -1.78455 | 25691 ft | 395 kts | 149° |
| 2026-05-06 19:13 | 52.50651 | -1.76093 | 25264 ft | 391 kts | 149° |
| 2026-05-06 19:13 | 52.48368 | -1.73758 | 24848 ft | 386 kts | 149° |
| 2026-05-06 19:13 | 52.46111 | -1.71452 | 24433 ft | 382 kts | 149° |
| 2026-05-06 19:14 | 52.43864 | -1.69159 | 24017 ft | 379 kts | 149° |
| 2026-05-06 19:14 | 52.41647 | -1.66900 | 23607 ft | 376 kts | 149° |
| 2026-05-06 19:14 | 52.39451 | -1.64665 | 23197 ft | 373 kts | 149° |
| 2026-05-06 19:14 | 52.37270 | -1.62448 | 22775 ft | 370 kts | 149° |
| 2026-05-06 19:15 | 52.35103 | -1.60247 | 22357 ft | 368 kts | 149° |
| 2026-05-06 19:15 | 52.32950 | -1.58061 | 21950 ft | 366 kts | 149° |
| 2026-05-06 19:15 | 52.30804 | -1.55884 | 21530 ft | 364 kts | 149° |
| 2026-05-06 19:15 | 52.28655 | -1.53709 | 21124 ft | 363 kts | 149° |
| 2026-05-06 19:16 | 52.26530 | -1.51561 | 20708 ft | 361 kts | 149° |
| 2026-05-06 19:16 | 52.24407 | -1.49418 | 20286 ft | 360 kts | 149° |
| 2026-05-06 19:16 | 52.22325 | -1.47242 | 20031 ft | 353 kts | 146° |
| 2026-05-06 19:16 | 52.20407 | -1.44898 | 20019 ft | 340 kts | 141° |
| 2026-05-06 19:17 | 52.18647 | -1.42470 | 20023 ft | 326 kts | 140° |
| 2026-05-06 19:17 | 52.16958 | -1.40103 | 19826 ft | 319 kts | 139° |
| 2026-05-06 19:17 | 52.15285 | -1.37758 | 19563 ft | 315 kts | 139° |
| 2026-05-06 19:17 | 52.13645 | -1.35464 | 19312 ft | 311 kts | 139° |
| 2026-05-06 19:18 | 52.12021 | -1.33198 | 19058 ft | 306 kts | 140° |
| 2026-05-06 19:18 | 52.10423 | -1.30971 | 18804 ft | 302 kts | 140° |
| 2026-05-06 19:18 | 52.08844 | -1.28772 | 18521 ft | 299 kts | 140° |
| 2026-05-06 19:18 | 52.07278 | -1.26596 | 18210 ft | 297 kts | 140° |
| 2026-05-06 19:19 | 52.05718 | -1.24430 | 17892 ft | 296 kts | 140° |
| 2026-05-06 19:19 | 52.04157 | -1.22263 | 17570 ft | 294 kts | 140° |
| 2026-05-06 19:19 | 52.02613 | -1.20122 | 17239 ft | 293 kts | 140° |
| 2026-05-06 19:19 | 52.01073 | -1.17990 | 16909 ft | 292 kts | 140° |
| 2026-05-06 19:20 | 51.99542 | -1.15874 | 16578 ft | 290 kts | 140° |
| 2026-05-06 19:20 | 51.98017 | -1.13770 | 16265 ft | 289 kts | 140° |
| 2026-05-06 19:20 | 51.96499 | -1.11676 | 15957 ft | 288 kts | 140° |
| 2026-05-06 19:20 | 51.94985 | -1.09588 | 15690 ft | 286 kts | 140° |
| 2026-05-06 19:21 | 51.93471 | -1.07499 | 15345 ft | 286 kts | 140° |
| 2026-05-06 19:21 | 51.91968 | -1.05428 | 15032 ft | 285 kts | 140° |
| 2026-05-06 19:21 | 51.90471 | -1.03370 | 14723 ft | 284 kts | 140° |
| 2026-05-06 19:21 | 51.88973 | -1.01311 | 14408 ft | 283 kts | 140° |
| 2026-05-06 19:22 | 51.87484 | -0.99267 | 14107 ft | 282 kts | 140° |
| 2026-05-06 19:22 | 51.86014 | -0.97215 | 13806 ft | 280 kts | 135° |
| 2026-05-06 19:22 | 51.84812 | -0.94784 | 13528 ft | 278 kts | 119° |
| 2026-05-06 19:22 | 51.83854 | -0.92073 | 13238 ft | 284 kts | 125° |
| 2026-05-06 19:23 | 51.82334 | -0.89839 | 12979 ft | 313 kts | 150° |
| 2026-05-06 19:23 | 51.80283 | -0.88710 | 12561 ft | 314 kts | 171° |
| 2026-05-06 19:23 | 51.78169 | -0.88264 | 12178 ft | 303 kts | 175° |
| 2026-05-06 19:23 | 51.76111 | -0.87954 | 11796 ft | 294 kts | 175° |
| 2026-05-06 19:24 | 51.74121 | -0.87680 | 11416 ft | 285 kts | 176° |
| 2026-05-06 19:24 | 51.72190 | -0.87418 | 11037 ft | 276 kts | 176° |
| 2026-05-06 19:24 | 51.70297 | -0.87164 | 10657 ft | 269 kts | 176° |
| 2026-05-06 19:24 | 51.68464 | -0.86919 | 10278 ft | 263 kts | 176° |
| 2026-05-06 19:25 | 51.66666 | -0.86683 | 9840 ft | 262 kts | 176° |
| 2026-05-06 19:25 | 51.64851 | -0.86451 | 9338 ft | 265 kts | 175° |
| 2026-05-06 19:25 | 51.63032 | -0.86217 | 8756 ft | 265 kts | 175° |
| 2026-05-06 19:25 | 51.61225 | -0.86396 | 8141 ft | 263 kts | 197° |
| 2026-05-06 19:26 | 51.59558 | -0.87404 | 7708 ft | 254 kts | 204° |
| 2026-05-06 19:26 | 51.57956 | -0.88557 | 7196 ft | 250 kts | 205° |
| 2026-05-06 19:26 | 51.56399 | -0.89718 | 6688 ft | 247 kts | 206° |
| 2026-05-06 19:26 | 51.54824 | -0.90729 | 6167 ft | 245 kts | 192° |
| 2026-05-06 19:27 | 51.53150 | -0.91035 | 5699 ft | 244 kts | 183° |
| 2026-05-06 19:27 | 51.51454 | -0.91130 | 5245 ft | 249 kts | 181° |
| 2026-05-06 19:27 | 51.49730 | -0.90979 | 4836 ft | 252 kts | 163° |
| 2026-05-06 19:27 | 51.48239 | -0.89632 | 4547 ft | 248 kts | 132° |
| 2026-05-06 19:28 | 51.47395 | -0.87313 | 4234 ft | 237 kts | 101° |
| 2026-05-06 19:28 | 51.47323 | -0.84790 | 3988 ft | 220 kts | 83° |
| 2026-05-06 19:28 | 51.47457 | -0.82440 | 3972 ft | 206 kts | 82° |
| 2026-05-06 19:28 | 51.47588 | -0.80213 | 3908 ft | 198 kts | 83° |
| 2026-05-06 19:29 | 51.47667 | -0.78072 | 3744 ft | 191 kts | 85° |
| 2026-05-06 19:29 | 51.47705 | -0.75960 | 3466 ft | 190 kts | 86° |
| 2026-05-06 19:29 | 51.47720 | -0.73852 | 3191 ft | 190 kts | 87° |
| 2026-05-06 19:29 | 51.47723 | -0.71746 | 2921 ft | 188 kts | 87° |
| 2026-05-06 19:30 | 51.47722 | -0.69666 | 2661 ft | 187 kts | 87° |
| 2026-05-06 19:30 | 51.47720 | -0.67627 | 2405 ft | 180 kts | 86° |
| 2026-05-06 19:30 | 51.47718 | -0.65731 | 2183 ft | 163 kts | 86° |
| 2026-05-06 19:30 | 51.47718 | -0.63976 | 1970 ft | 156 kts | 86° |
| 2026-05-06 19:31 | 51.47721 | -0.62266 | 1773 ft | 154 kts | 85° |
| 2026-05-06 19:31 | 51.47724 | -0.60565 | 1579 ft | 153 kts | 86° |
| 2026-05-06 19:31 | 51.47729 | -0.57216 | 1171 ft | 143 kts | 86° |
| 2026-05-06 19:32 | 51.47731 | -0.55677 | 974 ft | 134 kts | 86° |
| 2026-05-06 19:32 | 51.47735 | -0.54240 | 790 ft | 126 kts | 86° |
| 2026-05-06 19:32 | 51.47739 | -0.52853 | 632 ft | 125 kts | 87° |
| 2026-05-06 19:32 | 51.47737 | -0.51465 | 477 ft | 125 kts | 85° |
| 2026-05-06 19:33 | 51.47744 | -0.50088 | 289 ft | 124 kts | 86° |
| 2026-05-06 19:33 | 51.47745 | -0.48714 | 149 ft | 123 kts | 86° |
| 2026-05-06 19:33 | 51.47747 | -0.47376 | 86 ft | 114 kts | 85° |
| 2026-05-06 19:33 | 51.47760 | -0.46315 | 84 ft | 72 kts | 89° |
| 2026-05-06 19:34 | 51.47761 | -0.45863 | 87 ft | 12 kts | 95° |
| 2026-05-06 19:34 | 51.47699 | -0.45869 | 86 ft | 14 kts | 231° |
| 2026-05-06 19:34 | 51.47633 | -0.45995 | 85 ft | 16 kts | 223° |
| 2026-05-06 19:34 | 51.47555 | -0.46082 | 85 ft | 14 kts | 198° |
| 2026-05-06 19:35 | 51.47514 | -0.46223 | 84 ft | 16 kts | 270° |
| 2026-05-06 19:35 | 51.47515 | -0.46414 | 83 ft | 18 kts | 268° |
| 2026-05-06 19:35 | 51.47513 | -0.46623 | 83 ft | 16 kts | 270° |
| 2026-05-06 19:35 | 51.47498 | -0.46776 | 83 ft | 15 kts | 255° |
| 2026-05-06 19:36 | 51.47493 | -0.46948 | 83 ft | 16 kts | 270° |
| 2026-05-06 19:36 | 51.47492 | -0.47131 | 84 ft | 17 kts | 269° |
| 2026-05-06 19:36 | 51.47491 | -0.47324 | 84 ft | 18 kts | 269° |
| 2026-05-06 19:36 | 51.47490 | -0.47530 | 84 ft | 19 kts | 270° |
| 2026-05-06 19:37 | 51.47490 | -0.47731 | 84 ft | 18 kts | 269° |
| 2026-05-06 19:37 | 51.47489 | -0.47943 | 83 ft | 20 kts | 269° |
| 2026-05-06 19:37 | 51.47487 | -0.48162 | 82 ft | 19 kts | 268° |
| 2026-05-06 19:37 | 51.47487 | -0.48281 | 82 ft | 12 kts | 269° |
| 2026-05-06 19:38 | 51.47394 | -0.48359 | 81 ft | 15 kts | 179° |
| 2026-05-06 19:38 | 51.47287 | -0.48357 | 81 ft | 16 kts | 178° |
| 2026-05-06 19:38 | 51.47169 | -0.48353 | 81 ft | 18 kts | 180° |
| 2026-05-06 19:38 | 51.47042 | -0.48354 | 81 ft | 19 kts | 179° |
| 2026-05-06 19:39 | 51.46942 | -0.48355 | 81 ft | 13 kts | 180° |
| 2026-05-06 19:39 | 51.46877 | -0.48431 | 81 ft | 14 kts | 264° |
| 2026-05-06 19:39 | 51.46877 | -0.48599 | 81 ft | 16 kts | 269° |
| 2026-05-06 19:39 | 51.46876 | -0.48752 | 81 ft | 13 kts | 269° |
| 2026-05-06 19:40 | 51.46877 | -0.48836 | 81 ft | 6 kts | 291° |
| 2026-05-06 19:40 | 51.46909 | -0.48859 | 81 ft | 3 kts | 355° |
| 2026-05-06 19:40 | 51.46928 | -0.48860 | 82 ft | 0 kts | 359° |